Time;durP1;ratioP1;P1;durP2;ratioP2;P2;SDS_P1;SDS_P2;PMS_P1;PMS_P2;Temp;Humidity;BMP_temperature;BMP_pressure;BME280_temperature;BME280_humidity;BME280_pressure;Samples;Min_cycle;Max_cycle;Signal;HPM_P1;HPM_P2
2023/03/23 00:00:15;;;;;;;1.63;0.73;;;;;;;16.11;47.96;99794.47;5072759;28;20687;-63
2023/03/23 00:02:43;;;;;;;3.07;0.80;;;;;;;16.08;47.92;99799.41;5089682;27;20210;-63
2023/03/23 00:05:11;;;;;;;4.50;1.10;;;;;;;16.13;47.84;99802.31;5088894;28;20199;-62
2023/03/23 00:07:45;;;;;;;1.80;0.87;;;;;;;16.16;47.85;99808.09;5086713;27;20234;-64
2023/03/23 00:10:11;;;;;;;2.60;1.10;;;;;;;16.17;48.07;99812.41;5072481;28;20218;-63
2023/03/23 00:12:42;;;;;;;2.87;1.00;;;;;;;16.11;48.07;99805.16;5073331;28;20211;-63
2023/03/23 00:15:12;;;;;;;3.60;1.30;;;;;;;16.12;48.20;99800.66;5085686;27;20214;-63
2023/03/23 00:17:40;;;;;;;1.70;0.80;;;;;;;16.08;48.65;99791.38;5073193;28;20242;-64
2023/03/23 00:20:10;;;;;;;1.63;0.90;;;;;;;16.11;48.34;99791.78;5087675;28;20309;-63
2023/03/23 00:22:38;;;;;;;2.07;0.80;;;;;;;16.10;48.89;99790.16;5070923;28;20226;-62
2023/03/23 00:25:06;;;;;;;2.17;0.97;;;;;;;16.05;48.64;99789.94;5069424;28;20210;-64
2023/03/23 00:27:32;;;;;;;1.30;0.60;;;;;;;16.03;48.67;99783.94;5068658;28;20226;-64
2023/03/23 00:29:59;;;;;;;1.83;0.87;;;;;;;16.08;48.74;99789.53;5090093;28;20646;-65
2023/03/23 00:32:28;;;;;;;2.47;1.10;;;;;;;16.11;49.20;99789.13;5074375;28;20784;-64
2023/03/23 00:34:55;;;;;;;3.17;1.33;;;;;;;16.05;49.34;99791.78;5071632;27;20704;-64
2023/03/23 00:37:22;;;;;;;8.50;1.10;;;;;;;16.08;49.71;99794.06;5089176;28;20214;-65
2023/03/23 00:39:51;;;;;;;2.53;1.03;;;;;;;16.06;49.63;99802.28;5088841;28;20204;-64
2023/03/23 00:42:18;;;;;;;4.57;1.10;;;;;;;16.08;49.92;99794.06;5087805;28;20752;-63
2023/03/23 00:44:45;;;;;;;2.27;0.90;;;;;;;16.14;49.97;99794.06;5091571;28;20593;-64
2023/03/23 00:47:12;;;;;;;1.97;1.20;;;;;;;16.04;50.44;99796.31;5072679;28;20715;-65
2023/03/23 00:49:40;;;;;;;1.73;0.90;;;;;;;16.05;50.43;99786.44;5070769;28;20218;-64
2023/03/23 00:52:07;;;;;;;3.20;1.33;;;;;;;16.04;50.52;99788.28;5089292;28;20221;-64
2023/03/23 00:54:36;;;;;;;2.63;1.10;;;;;;;16.07;50.22;99793.25;5073246;28;20225;-64
2023/03/23 00:57:05;;;;;;;3.40;1.20;;;;;;;16.01;50.63;99796.69;5093469;27;20207;-63
2023/03/23 00:59:31;;;;;;;2.67;1.43;;;;;;;16.03;50.69;99786.63;5091087;28;20209;-63
2023/03/23 01:01:58;;;;;;;2.77;0.97;;;;;;;16.08;50.38;99789.53;5089799;27;20210;-64
2023/03/23 01:04:26;;;;;;;7.57;1.40;;;;;;;16.00;50.70;99779.03;5071377;28;20214;-62
2023/03/23 01:06:52;;;;;;;3.53;1.37;;;;;;;16.00;50.85;99765.66;5086680;27;20748;-63
2023/03/23 01:09:20;;;;;;;3.37;1.33;;;;;;;16.01;50.51;99772.63;5089580;28;20206;-64
2023/03/23 01:11:48;;;;;;;3.00;1.33;;;;;;;16.05;50.55;99776.56;5088893;27;20773;-64
2023/03/23 01:14:18;;;;;;;2.57;1.33;;;;;;;15.99;50.60;99777.38;5085340;27;20298;-63
2023/03/23 01:16:44;;;;;;;2.40;1.10;;;;;;;15.96;50.71;99777.75;5068662;28;20217;-63
2023/03/23 01:19:11;;;;;;;3.13;1.40;;;;;;;15.90;51.00;99775.06;5071119;28;20218;-62
2023/03/23 01:21:38;;;;;;;5.33;1.20;;;;;;;15.95;50.77;99770.75;5068523;28;20682;-64
2023/03/23 01:24:06;;;;;;;3.07;1.27;;;;;;;15.92;51.25;99771.16;5072184;28;20699;-63
2023/03/23 01:26:32;;;;;;;2.30;1.20;;;;;;;15.97;50.91;99768.72;5085376;28;20746;-63
2023/03/23 01:28:59;;;;;;;3.23;1.27;;;;;;;15.91;50.96;99761.50;5087325;28;20231;-63
2023/03/23 01:31:27;;;;;;;2.40;1.10;;;;;;;15.91;51.29;99756.16;5088618;28;20313;-62
2023/03/23 01:33:55;;;;;;;2.87;1.17;;;;;;;15.78;51.53;99754.22;5071015;28;20544;-63
2023/03/23 01:36:25;;;;;;;2.53;1.40;;;;;;;15.81;51.30;99755.69;5087092;28;20290;-63
2023/03/23 01:38:51;;;;;;;3.53;1.03;;;;;;;15.78;51.57;99750.75;5074407;28;21705;-63
2023/03/23 01:41:19;;;;;;;3.77;1.40;;;;;;;15.73;51.71;99751.34;5068120;28;20229;-63
2023/03/23 01:43:57;;;;;;;3.17;1.10;;;;;;;15.76;51.45;99747.44;5091094;28;20206;-62
2023/03/23 01:46:25;;;;;;;2.80;1.30;;;;;;;15.77;51.21;99749.09;5087728;27;20674;-63
2023/03/23 01:48:54;;;;;;;3.33;1.43;;;;;;;15.76;51.02;99737.56;5073067;28;20230;-63
2023/03/23 01:51:22;;;;;;;3.13;1.10;;;;;;;15.77;51.38;99735.72;5070095;28;20611;-64
2023/03/23 01:53:53;;;;;;;1.60;0.90;;;;;;;15.79;51.24;99725.66;5072208;27;20325;-63
2023/03/23 01:56:25;;;;;;;1.93;1.00;;;;;;;15.75;51.33;99735.91;5068222;28;20210;-64
2023/03/23 01:58:53;;;;;;;5.07;1.57;;;;;;;15.77;51.04;99738.38;5086897;28;20664;-63
2023/03/23 02:01:24;;;;;;;2.20;1.00;;;;;;;15.70;51.23;99737.53;5068496;28;20206;-63
2023/03/23 02:03:57;;;;;;;4.97;1.00;;;;;;;15.71;51.36;99748.03;5068576;28;20213;-64
2023/03/23 02:06:25;;;;;;;3.83;1.20;;;;;;;15.68;51.35;99747.59;5070665;28;20230;-63
2023/03/23 02:08:53;;;;;;;4.60;1.40;;;;;;;15.74;51.55;99744.16;5072388;28;20279;-64
2023/03/23 02:11:22;;;;;;;2.73;1.10;;;;;;;15.72;51.64;99733.66;5088230;28;20876;-65
2023/03/23 02:13:50;;;;;;;2.83;1.43;;;;;;;15.72;51.72;99735.50;5084131;28;20199;-63
2023/03/23 02:16:27;;;;;;;4.23;1.20;;;;;;;15.75;51.64;99740.44;5091913;28;20213;-64
2023/03/23 02:19:04;;;;;;;3.70;1.30;;;;;;;15.74;51.80;99744.94;5090201;28;20213;-64
2023/03/23 02:22:00;;;;;;;6.60;1.33;;;;;;;15.71;51.89;99744.53;5071442;28;20217;-62
2023/03/23 02:24:43;;;;;;;4.30;1.30;;;;;;;15.64;51.98;99728.50;5080481;28;20942;-63
2023/03/23 02:27:18;;;;;;;2.47;1.17;;;;;;;15.64;52.46;99722.31;5086638;28;20214;-63
2023/03/23 02:30:09;;;;;;;2.47;1.10;;;;;;;15.65;52.05;99718.63;5086794;28;20214;-62
2023/03/23 02:33:00;;;;;;;3.27;1.30;;;;;;;15.59;52.63;99725.56;5072110;28;22020;-62
2023/03/23 02:35:35;;;;;;;3.77;1.27;;;;;;;15.59;52.42;99714.06;5089982;27;20206;-64
2023/03/23 02:38:05;;;;;;;2.97;1.00;;;;;;;15.54;52.67;99706.66;5070408;28;20253;-63
2023/03/23 02:40:40;;;;;;;2.43;1.00;;;;;;;15.42;53.21;99701.00;5072440;28;21445;-62
2023/03/23 02:43:09;;;;;;;4.07;1.60;;;;;;;15.40;53.16;99705.72;5052300;28;20217;-64
2023/03/23 02:45:37;;;;;;;3.40;1.30;;;;;;;15.38;53.38;99705.09;5053029;28;20427;-63
2023/03/23 02:48:06;;;;;;;3.23;0.90;;;;;;;15.40;53.59;99708.38;5051952;28;20230;-63
2023/03/23 02:50:37;;;;;;;5.43;1.77;;;;;;;15.37;53.63;99706.13;5054018;28;20580;-64
2023/03/23 02:53:08;;;;;;;2.93;1.20;;;;;;;15.36;53.83;99704.47;5069549;28;20207;-63
2023/03/23 02:55:40;;;;;;;1.73;1.00;;;;;;;15.39;53.80;99697.91;5050414;28;20214;-63
2023/03/23 02:58:06;;;;;;;2.67;1.27;;;;;;;15.33;54.22;99706.69;5052943;28;20288;-64
2023/03/23 03:00:33;;;;;;;4.20;1.10;;;;;;;15.33;54.62;99696.84;5071056;28;20206;-65
2023/03/23 03:03:00;;;;;;;3.07;1.20;;;;;;;15.38;54.61;99702.44;5054882;28;20211;-64
2023/03/23 03:05:39;;;;;;;4.63;1.10;;;;;;;15.41;54.48;99687.84;5070606;28;20831;-64
2023/03/23 03:08:17;;;;;;;3.77;1.20;;;;;;;15.34;54.62;99695.00;5068558;28;20230;-65
2023/03/23 03:10:51;;;;;;;2.70;1.10;;;;;;;15.30;54.58;99693.75;5067349;28;20218;-65
2023/03/23 03:13:29;;;;;;;2.33;1.17;;;;;;;15.31;54.96;99690.88;5052003;28;20229;-65
2023/03/23 03:16:00;;;;;;;3.50;1.10;;;;;;;15.32;54.55;99681.84;5052080;28;20323;-64
2023/03/23 03:18:32;;;;;;;2.07;1.10;;;;;;;15.27;54.75;99694.13;5071509;28;20220;-64
2023/03/23 03:21:05;;;;;;;5.57;1.07;;;;;;;15.25;54.93;99685.50;5058067;28;20211;-65
2023/03/23 03:23:34;;;;;;;3.03;1.13;;;;;;;15.33;54.84;99693.34;5054610;28;20218;-65
2023/03/23 03:26:04;;;;;;;3.47;1.23;;;;;;;15.31;54.72;99695.38;5068933;28;20713;-64
2023/03/23 03:28:33;;;;;;;2.47;1.20;;;;;;;15.31;54.69;99682.03;5068960;28;21459;-65
2023/03/23 03:31:03;;;;;;;2.80;1.17;;;;;;;15.28;54.80;99679.75;5069059;28;20654;-64
2023/03/23 03:33:33;;;;;;;3.50;1.40;;;;;;;15.23;54.96;99676.84;5070003;28;20659;-65
2023/03/23 03:36:04;;;;;;;2.37;0.97;;;;;;;15.25;54.92;99680.97;5049789;28;20218;-63
2023/03/23 03:38:31;;;;;;;2.20;1.10;;;;;;;15.18;55.07;99682.78;5057967;28;20230;-62
2023/03/23 03:40:57;;;;;;;3.43;1.30;;;;;;;15.21;55.31;99682.41;5071129;28;20209;-62
2023/03/23 03:43:24;;;;;;;3.13;1.63;;;;;;;15.22;55.07;99694.72;5069389;28;21102;-64
2023/03/23 03:45:51;;;;;;;2.63;1.10;;;;;;;15.25;54.94;99691.66;5070545;28;20220;-63
2023/03/23 03:48:17;;;;;;;2.00;1.13;;;;;;;15.30;54.88;99683.88;5050423;28;20777;-63
2023/03/23 03:50:45;;;;;;;2.30;1.33;;;;;;;15.26;55.00;99681.81;5050037;28;20210;-64
2023/03/23 03:53:12;;;;;;;2.70;1.30;;;;;;;15.27;55.02;99684.28;5053223;28;20219;-63
2023/03/23 03:55:45;;;;;;;3.13;1.37;;;;;;;15.27;54.88;99686.13;5050332;28;20222;-64
2023/03/23 03:58:12;;;;;;;3.30;1.40;;;;;;;15.25;54.86;99686.31;5052316;28;20238;-63
2023/03/23 04:00:39;;;;;;;2.83;1.10;;;;;;;15.22;54.80;99692.03;5050306;28;20213;-64
2023/03/23 04:03:07;;;;;;;2.30;1.10;;;;;;;15.28;54.77;99680.59;5050929;28;20229;-63
2023/03/23 04:05:34;;;;;;;1.67;1.17;;;;;;;15.23;55.23;99688.34;5069786;28;20219;-64
2023/03/23 04:08:01;;;;;;;4.43;1.40;;;;;;;15.31;54.87;99685.53;5052673;28;20719;-63
2023/03/23 04:10:31;;;;;;;2.40;1.10;;;;;;;15.28;54.79;99683.25;5069164;28;20288;-63
2023/03/23 04:12:58;;;;;;;2.60;1.23;;;;;;;15.26;55.11;99695.97;5066808;28;20210;-63
2023/03/23 04:15:25;;;;;;;3.83;1.40;;;;;;;15.24;55.11;99687.34;5055239;28;20227;-63
2023/03/23 04:17:52;;;;;;;1.97;1.03;;;;;;;15.28;55.15;99690.44;5073318;28;20292;-63
2023/03/23 04:20:19;;;;;;;3.00;1.33;;;;;;;15.27;56.10;99713.66;5056600;28;20230;-64
2023/03/23 04:22:48;;;;;;;2.47;1.13;;;;;;;15.34;55.86;99711.03;5069949;28;20219;-63
2023/03/23 04:25:20;;;;;;;3.53;1.23;;;;;;;15.33;56.33;99720.88;5051894;28;20219;-64
2023/03/23 04:27:52;;;;;;;3.97;1.40;;;;;;;15.38;56.02;99733.66;5051471;28;20241;-64
2023/03/23 04:30:20;;;;;;;4.03;1.20;;;;;;;15.40;55.61;99735.09;5052174;28;20203;-64
2023/03/23 04:32:50;;;;;;;1.73;1.00;;;;;;;15.36;55.44;99731.19;5067850;28;20230;-64
2023/03/23 04:35:18;;;;;;;2.30;1.03;;;;;;;15.34;55.31;99725.19;5050823;28;20215;-64
2023/03/23 04:37:45;;;;;;;2.50;1.00;;;;;;;15.39;55.28;99727.31;5060346;28;20254;-65
2023/03/23 04:40:14;;;;;;;1.60;1.10;;;;;;;15.41;55.40;99734.06;5067520;28;20634;-64
2023/03/23 04:42:45;;;;;;;1.77;0.93;;;;;;;15.47;55.12;99731.66;5069558;28;20248;-64
2023/03/23 04:45:15;;;;;;;2.17;1.20;;;;;;;15.52;55.13;99745.22;5070659;28;20730;-65
2023/03/23 04:47:52;;;;;;;2.50;1.00;;;;;;;15.57;55.33;99742.84;5067699;28;20218;-64
2023/03/23 04:50:21;;;;;;;2.97;1.30;;;;;;;15.60;55.50;99742.44;5061315;28;20215;-64
2023/03/23 04:52:48;;;;;;;3.47;1.10;;;;;;;15.63;55.58;99740.19;5049308;28;20207;-64
2023/03/23 04:55:15;;;;;;;3.13;1.03;;;;;;;15.62;55.70;99743.06;5069569;28;20224;-65
2023/03/23 04:57:42;;;;;;;4.00;1.20;;;;;;;15.65;55.90;99737.31;5053141;28;20261;-65
2023/03/23 05:00:14;;;;;;;2.77;1.10;;;;;;;15.66;55.78;99741.63;5049383;28;20256;-63
2023/03/23 05:02:42;;;;;;;2.00;1.10;;;;;;;15.64;56.29;99746.38;5056641;28;20207;-64
2023/03/23 05:05:11;;;;;;;2.43;1.07;;;;;;;15.64;56.18;99749.03;5054738;28;20214;-63
2023/03/23 05:07:38;;;;;;;3.40;1.00;;;;;;;15.64;55.92;99749.03;5048176;28;20356;-64
2023/03/23 05:10:07;;;;;;;3.10;1.20;;;;;;;15.65;56.44;99756.03;5066642;28;20254;-64
2023/03/23 05:12:34;;;;;;;5.93;1.20;;;;;;;15.63;56.94;99761.56;5068475;28;20219;-64
2023/03/23 05:15:01;;;;;;;2.20;1.13;;;;;;;15.65;56.68;99761.38;5056596;28;20230;-64
2023/03/23 05:17:29;;;;;;;3.17;1.03;;;;;;;15.62;57.12;99761.75;5070762;28;20210;-63
2023/03/23 05:19:58;;;;;;;5.70;1.33;;;;;;;15.61;57.50;99765.47;5070241;28;20205;-64
2023/03/23 05:22:27;;;;;;;2.23;1.00;;;;;;;15.60;57.94;99753.94;5052068;28;20211;-63
2023/03/23 05:24:54;;;;;;;2.63;1.07;;;;;;;15.53;58.38;99760.25;5051681;28;20303;-63
2023/03/23 05:27:21;;;;;;;5.30;1.40;;;;;;;15.54;58.87;99761.94;5050799;28;20207;-64
2023/03/23 05:29:49;;;;;;;3.00;1.10;;;;;;;15.54;59.36;99764.59;5050532;28;20231;-63
2023/03/23 05:32:16;;;;;;;4.10;1.47;;;;;;;15.53;59.43;99763.75;5067021;28;20261;-63
2023/03/23 05:34:43;;;;;;;4.67;1.40;;;;;;;15.50;60.58;99760.63;5068961;28;20691;-64
2023/03/23 05:37:11;;;;;;;2.57;1.30;;;;;;;15.44;61.66;99755.06;5051491;28;20219;-63
2023/03/23 05:39:39;;;;;;;3.03;1.47;;;;;;;15.40;62.08;99745.78;5051809;28;20209;-63
2023/03/23 05:42:07;;;;;;;1.97;0.97;;;;;;;15.37;61.89;99748.03;5066996;28;20204;-64
2023/03/23 05:44:34;;;;;;;1.83;1.00;;;;;;;15.37;61.96;99748.88;5052936;28;20269;-64
2023/03/23 05:47:01;;;;;;;2.97;1.10;;;;;;;15.32;62.37;99751.28;5052326;28;20866;-64
2023/03/23 05:49:28;;;;;;;4.93;1.40;;;;;;;15.32;62.77;99758.47;5052060;28;20246;-64
2023/03/23 05:51:55;;;;;;;3.03;1.27;;;;;;;15.27;62.54;99769.75;5051270;28;20210;-64
2023/03/23 05:54:23;;;;;;;2.70;1.13;;;;;;;15.28;62.98;99768.72;5050175;28;20207;-63
2023/03/23 05:56:49;;;;;;;2.03;1.10;;;;;;;15.30;62.96;99768.53;5067005;28;20198;-63
2023/03/23 05:59:16;;;;;;;4.37;1.40;;;;;;;15.29;63.06;99775.72;5055507;28;20298;-64
2023/03/23 06:01:43;;;;;;;4.23;1.30;;;;;;;15.33;63.33;99787.66;5068636;28;20211;-63
2023/03/23 06:04:11;;;;;;;1.90;1.10;;;;;;;15.34;63.18;99786.63;5050236;28;20546;-64
2023/03/23 06:06:38;;;;;;;2.60;1.30;;;;;;;15.34;63.32;99793.81;5045666;28;20218;-65
2023/03/23 06:09:05;;;;;;;2.40;1.20;;;;;;;15.32;63.80;99791.34;5050281;28;20329;-64
2023/03/23 06:11:33;;;;;;;3.03;1.50;;;;;;;15.30;63.78;99793.38;5053214;28;20246;-63
2023/03/23 06:13:59;;;;;;;3.27;1.40;;;;;;;15.33;63.80;99795.66;5050620;28;20211;-64
2023/03/23 06:16:26;;;;;;;3.67;1.50;;;;;;;15.33;63.83;99790.31;5068913;28;20253;-63
2023/03/23 06:18:53;;;;;;;2.27;1.27;;;;;;;15.32;63.93;99782.50;5065556;28;20210;-63
2023/03/23 06:21:21;;;;;;;3.93;1.53;;;;;;;15.31;63.71;99792.38;5066803;28;20668;-64
2023/03/23 06:23:48;;;;;;;2.23;1.23;;;;;;;15.31;64.07;99792.38;5047098;28;20243;-63
2023/03/23 06:26:17;;;;;;;4.07;1.20;;;;;;;15.30;64.05;99798.72;5052146;28;20219;-63
2023/03/23 06:28:45;;;;;;;2.83;1.20;;;;;;;15.21;64.45;99802.59;5050192;28;20223;-63
2023/03/23 06:31:14;;;;;;;2.77;1.43;;;;;;;15.17;64.98;99806.66;5048616;28;20221;-63
2023/03/23 06:33:41;;;;;;;3.57;1.53;;;;;;;15.20;64.86;99800.94;5051660;28;20210;-63
2023/03/23 06:36:09;;;;;;;3.53;1.20;;;;;;;15.19;65.03;99811.81;5051133;28;20268;-62
2023/03/23 06:38:35;;;;;;;3.77;1.60;;;;;;;15.21;64.89;99813.28;5048055;28;20235;-63
2023/03/23 06:41:02;;;;;;;2.33;1.30;;;;;;;15.20;65.11;99811.63;5052277;28;20649;-64
2023/03/23 06:43:29;;;;;;;2.27;1.20;;;;;;;15.13;65.76;99820.59;5068144;28;20216;-63
2023/03/23 06:45:59;;;;;;;6.33;1.40;;;;;;;15.20;65.61;99837.50;5068045;28;20290;-63
2023/03/23 06:48:26;;;;;;;3.30;1.37;;;;;;;15.19;65.19;99827.81;5066606;28;20212;-64
2023/03/23 06:50:53;;;;;;;3.20;1.27;;;;;;;15.17;65.05;99833.34;5065664;28;20310;-63
2023/03/23 06:53:20;;;;;;;2.53;1.20;;;;;;;15.15;64.51;99823.88;5065582;28;20665;-64
2023/03/23 06:55:47;;;;;;;4.17;1.53;;;;;;;15.12;65.09;99846.47;5047771;28;20211;-64
2023/03/23 06:58:14;;;;;;;2.47;1.17;;;;;;;15.15;65.15;99848.75;5066487;28;20207;-70
2023/03/23 07:00:41;;;;;;;2.17;1.37;;;;;;;15.12;64.99;99851.81;5070059;28;20673;-68
2023/03/23 07:03:09;;;;;;;2.80;1.10;;;;;;;15.22;64.84;99836.25;5066869;28;20211;-68
2023/03/23 07:05:36;;;;;;;3.00;1.10;;;;;;;15.23;65.02;99839.75;5065900;28;20216;-66
2023/03/23 07:08:03;;;;;;;2.63;1.17;;;;;;;15.24;65.53;99839.56;5046345;28;20238;-67
2023/03/23 07:10:31;;;;;;;5.17;1.80;;;;;;;15.22;65.18;99841.59;5066787;28;20727;-69
2023/03/23 07:12:59;;;;;;;2.47;1.23;;;;;;;15.28;64.85;99851.53;5059657;28;20691;-69
2023/03/23 07:15:26;;;;;;;4.27;1.33;;;;;;;15.29;64.87;99842.50;5071489;28;20301;-69
2023/03/23 07:17:54;;;;;;;5.33;1.63;;;;;;;15.28;64.95;99846.19;5055140;28;20296;-68
2023/03/23 07:20:22;;;;;;;2.77;1.47;;;;;;;15.24;65.04;99828.88;5058944;28;20207;-68
2023/03/23 07:22:49;;;;;;;3.10;1.13;;;;;;;15.20;65.22;99827.63;5056740;28;20214;-69
2023/03/23 07:25:16;;;;;;;2.40;1.20;;;;;;;15.20;65.24;99821.47;5066953;28;20206;-67
2023/03/23 07:27:45;;;;;;;4.17;1.40;;;;;;;15.25;65.42;99837.72;5053951;28;20235;-68
2023/03/23 07:30:13;;;;;;;3.13;1.40;;;;;;;15.26;65.30;99831.38;5053836;28;20235;-69
2023/03/23 07:32:40;;;;;;;2.60;1.03;;;;;;;15.22;65.49;99841.59;5073151;28;20215;-68
2023/03/23 07:35:07;;;;;;;2.87;1.27;;;;;;;15.16;65.64;99846.91;5072995;28;20218;-69
2023/03/23 07:37:36;;;;;;;4.67;1.23;;;;;;;15.14;65.53;99852.41;5069013;28;20242;-68
2023/03/23 07:40:14;;;;;;;2.23;1.10;;;;;;;15.17;65.54;99865.41;5050073;28;20218;-68
2023/03/23 07:42:42;;;;;;;2.07;1.17;;;;;;;15.11;66.34;99854.66;5070086;28;20324;-68
2023/03/23 07:45:10;;;;;;;2.83;1.30;;;;;;;14.98;67.18;99850.84;5058400;28;20862;-67
2023/03/23 07:47:36;;;;;;;2.50;0.93;;;;;;;14.79;68.20;99856.00;5071136;28;20885;-68
2023/03/23 07:50:03;;;;;;;1.30;0.80;;;;;;;14.76;69.03;99851.88;5071080;28;20231;-68
2023/03/23 07:52:31;;;;;;;1.83;1.00;;;;;;;14.83;68.55;99855.44;5052232;28;20261;-69
2023/03/23 07:55:01;;;;;;;1.23;0.90;;;;;;;15.00;68.01;99858.69;5069354;28;20203;-69
2023/03/23 07:57:28;;;;;;;3.33;0.90;;;;;;;15.07;68.02;99854.22;5048440;28;20319;-69
2023/03/23 07:59:55;;;;;;;2.40;1.03;;;;;;;15.09;68.04;99857.53;5050902;28;20337;-69
2023/03/23 08:02:22;;;;;;;2.63;1.00;;;;;;;15.16;67.94;99876.28;5052761;28;20779;-69
2023/03/23 08:04:48;;;;;;;2.67;0.87;;;;;;;15.16;67.56;99870.94;5048427;28;20217;-71
2023/03/23 08:07:17;;;;;;;1.33;0.80;;;;;;;15.17;67.56;99881.44;5068904;28;20680;-69
2023/03/23 08:09:43;;;;;;;2.30;1.07;;;;;;;15.19;67.60;99889.25;5066809;28;20227;-69
2023/03/23 08:12:12;;;;;;;1.13;0.70;;;;;;;15.24;67.11;99876.97;5068770;28;20214;-67
2023/03/23 08:14:39;;;;;;;1.60;0.80;;;;;;;15.27;66.75;99881.94;5043781;28;20702;-68
2023/03/23 08:17:06;;;;;;;2.17;1.13;;;;;;;15.33;66.30;99881.16;5066727;28;20227;-68
2023/03/23 08:19:36;;;;;;;2.83;0.97;;;;;;;15.35;66.11;99884.47;5049579;28;20210;-69
2023/03/23 08:22:03;;;;;;;1.60;1.00;;;;;;;15.33;66.56;99896.34;5051362;28;20252;-69
2023/03/23 08:24:30;;;;;;;1.57;0.80;;;;;;;15.37;66.15;99895.78;5067794;28;20209;-70
2023/03/23 08:26:57;;;;;;;5.07;1.10;;;;;;;15.29;66.32;99889.75;5049096;28;20202;-70
2023/03/23 08:29:25;;;;;;;2.97;1.10;;;;;;;15.35;66.37;99905.00;5051032;28;20345;-70
2023/03/23 08:31:52;;;;;;;2.47;1.10;;;;;;;15.26;66.52;99906.97;5046569;28;20216;-68
2023/03/23 08:34:19;;;;;;;2.57;1.10;;;;;;;15.19;66.76;99916.78;5064530;28;20664;-69
2023/03/23 08:36:46;;;;;;;2.13;0.80;;;;;;;15.24;66.29;99919.69;5053159;28;20214;-68
2023/03/23 08:39:14;;;;;;;1.03;0.70;;;;;;;15.28;66.26;99920.97;5049977;28;20617;-68
2023/03/23 08:41:40;;;;;;;3.90;1.10;;;;;;;15.30;66.03;99924.25;5047614;28;20203;-68
2023/03/23 08:44:08;;;;;;;2.20;1.10;;;;;;;15.33;66.07;99918.53;5051596;28;20729;-68
2023/03/23 08:46:37;;;;;;;1.90;0.83;;;;;;;15.34;66.79;99928.22;5067730;28;20346;-67
2023/03/23 08:49:03;;;;;;;1.73;0.90;;;;;;;15.43;66.31;99924.38;5050469;28;20327;-67
2023/03/23 08:51:30;;;;;;;2.23;0.90;;;;;;;15.51;65.69;99923.44;5049486;28;20220;-66
2023/03/23 08:53:57;;;;;;;3.00;1.10;;;;;;;15.56;65.54;99923.72;5048917;28;20645;-68
2023/03/23 08:56:23;;;;;;;1.43;0.70;;;;;;;15.64;64.25;99930.75;5065957;28;20586;-68
2023/03/23 08:58:50;;;;;;;1.67;0.80;;;;;;;15.66;63.40;99923.34;5063637;28;20214;-69
2023/03/23 09:01:17;;;;;;;2.93;0.83;;;;;;;15.73;62.34;99935.78;5050946;28;20221;-68
2023/03/23 09:03:45;;;;;;;3.40;1.07;;;;;;;15.69;63.06;99931.00;5052100;28;20718;-71
2023/03/23 09:06:12;;;;;;;2.70;1.13;;;;;;;15.82;61.81;99946.31;5071415;28;20219;-70
2023/03/23 09:08:39;;;;;;;3.33;1.00;;;;;;;15.96;61.75;99942.72;5067571;28;20238;-70
2023/03/23 09:11:08;;;;;;;4.73;1.40;;;;;;;15.97;61.55;99944.38;5070403;28;20218;-70
2023/03/23 09:13:35;;;;;;;2.83;1.00;;;;;;;15.93;61.48;99943.91;5053971;28;20522;-74
2023/03/23 09:16:03;;;;;;;2.53;0.90;;;;;;;15.97;61.60;99953.22;5058716;28;20215;-73
2023/03/23 09:18:30;;;;;;;2.77;1.00;;;;;;;15.99;61.85;99948.50;5052387;28;20206;-73
2023/03/23 09:21:00;;;;;;;3.17;0.87;;;;;;;15.94;61.57;99948.25;5061020;28;20211;-72
2023/03/23 09:23:27;;;;;;;1.77;0.90;;;;;;;15.93;61.82;99957.28;5053369;28;20298;-74
2023/03/23 09:25:54;;;;;;;2.27;1.00;;;;;;;15.80;61.99;99965.22;5054941;28;20211;-73
2023/03/23 09:28:21;;;;;;;1.53;0.90;;;;;;;15.78;62.12;99965.41;5060347;28;20234;-73
2023/03/23 09:30:48;;;;;;;2.07;0.90;;;;;;;15.80;62.27;99962.56;5070632;28;20212;-72
2023/03/23 09:33:16;;;;;;;1.47;0.80;;;;;;;15.80;61.79;99968.72;5054950;28;20625;-71
2023/03/23 09:35:42;;;;;;;2.07;0.97;;;;;;;15.78;61.66;99969.94;5062305;28;20639;-71
2023/03/23 09:38:12;;;;;;;1.57;0.70;;;;;;;15.71;62.04;99980.56;5054460;28;20243;-73
2023/03/23 09:40:48;;;;;;;1.33;0.70;;;;;;;15.79;62.21;99982.28;5051650;28;20215;-71
2023/03/23 09:43:34;;;;;;;4.10;0.80;;;;;;;16.49;61.26;99968.75;5052374;28;20218;-72
2023/03/23 09:46:24;;;;;;;2.47;0.83;;;;;;;16.95;59.94;99976.19;5061750;28;20209;-72
2023/03/23 09:48:53;;;;;;;2.50;0.80;;;;;;;16.97;58.75;99975.97;5053598;28;20300;-71
2023/03/23 09:51:38;;;;;;;3.77;0.73;;;;;;;16.83;59.07;99970.56;5054603;28;20289;-71
2023/03/23 09:54:16;;;;;;;4.37;1.17;;;;;;;16.74;59.18;99966.41;5055156;28;20206;-71
2023/03/23 09:56:43;;;;;;;2.37;0.90;;;;;;;16.57;59.45;99965.06;5053015;28;20330;-70
2023/03/23 09:59:17;;;;;;;2.47;1.00;;;;;;;16.38;60.39;99971.97;5055788;28;20208;-74
2023/03/23 10:01:48;;;;;;;3.93;1.10;;;;;;;16.30;60.43;99971.31;5052861;28;20210;-72
2023/03/23 10:04:26;;;;;;;3.83;0.90;;;;;;;16.52;60.32;99957.66;5054458;28;20991;-69
2023/03/23 10:06:54;;;;;;;1.93;1.00;;;;;;;16.93;59.79;99960.31;5055196;28;21147;-69
2023/03/23 10:09:23;;;;;;;2.17;0.70;;;;;;;19.29;54.13;99945.88;5060455;28;20450;-72
2023/03/23 10:12:00;;;;;;;1.97;0.87;;;;;;;21.88;46.67;99944.28;5050255;28;20238;-71
2023/03/23 10:14:38;;;;;;;1.80;0.70;;;;;;;22.76;43.62;99930.56;5055310;28;20210;-68
2023/03/23 10:17:22;;;;;;;1.67;0.70;;;;;;;21.77;44.79;99940.50;5069524;28;20218;-69
2023/03/23 10:19:55;;;;;;;1.67;0.90;;;;;;;20.72;47.69;99935.84;5052128;28;20218;-70
2023/03/23 10:22:27;;;;;;;2.47;0.90;;;;;;;19.85;50.07;99935.94;5052143;28;20214;-68
2023/03/23 10:25:03;;;;;;;2.73;0.90;;;;;;;19.51;51.65;99933.78;5050972;28;20215;-69
2023/03/23 10:27:37;;;;;;;2.10;1.00;;;;;;;19.24;53.02;99959.16;5044090;28;20209;-69
2023/03/23 10:30:18;;;;;;;1.87;1.00;;;;;;;18.69;54.24;99946.22;5048268;28;20734;-69
2023/03/23 10:32:51;;;;;;;3.50;0.97;;;;;;;19.02;54.46;99950.59;5049330;28;20314;-70
2023/03/23 10:35:21;;;;;;;2.37;1.07;;;;;;;19.11;53.89;99942.06;5069877;28;20279;-69
2023/03/23 10:37:52;;;;;;;2.30;1.00;;;;;;;18.85;53.49;99949.44;5067662;28;21145;-71
2023/03/23 10:40:24;;;;;;;1.50;0.80;;;;;;;18.40;53.52;99947.53;5049712;28;20222;-70
2023/03/23 10:42:54;;;;;;;1.97;1.00;;;;;;;17.90;55.76;99941.03;5054338;28;20657;-69
2023/03/23 10:45:25;;;;;;;3.50;0.97;;;;;;;17.52;56.92;99950.72;5070615;28;20204;-70
2023/03/23 10:47:56;;;;;;;1.67;0.90;;;;;;;17.28;57.80;99946.78;5068520;28;20239;-70
2023/03/23 10:50:27;;;;;;;1.87;1.00;;;;;;;16.90;58.80;99960.69;5073314;28;20233;-70
2023/03/23 10:52:57;;;;;;;2.40;1.10;;;;;;;16.78;59.47;99956.16;5055106;28;20304;-71
2023/03/23 10:55:37;;;;;;;2.03;0.80;;;;;;;16.80;59.77;99960.25;5065151;28;20215;-70
2023/03/23 10:58:06;;;;;;;1.90;1.00;;;;;;;16.74;60.57;99965.59;5058252;28;20214;-72
2023/03/23 11:00:33;;;;;;;2.07;0.87;;;;;;;16.76;60.67;99963.53;5056122;28;20281;-71
2023/03/23 11:03:03;;;;;;;4.20;0.90;;;;;;;16.73;60.88;99962.09;5058288;28;20207;-71
2023/03/23 11:05:37;;;;;;;4.37;0.97;;;;;;;16.64;61.52;99965.97;5057832;28;20200;-72
2023/03/23 11:08:11;;;;;;;2.80;1.43;;;;;;;16.85;61.19;99970.38;5076772;28;20223;-72
2023/03/23 11:10:41;;;;;;;5.10;1.00;;;;;;;16.83;61.06;99964.38;5057363;28;20242;-70
2023/03/23 11:13:14;;;;;;;4.53;1.20;;;;;;;16.79;61.33;99963.97;5056862;28;20215;-69
2023/03/23 11:15:44;;;;;;;1.80;0.70;;;;;;;16.87;61.06;99963.81;5052465;28;20596;-70
2023/03/23 11:18:13;;;;;;;2.13;1.00;;;;;;;16.79;61.85;99955.94;5053566;28;20576;-67
2023/03/23 11:20:42;;;;;;;3.20;1.00;;;;;;;16.79;62.38;99953.28;5062842;28;20217;-69
2023/03/23 11:23:23;;;;;;;2.27;1.27;;;;;;;16.87;62.51;99963.81;5072866;28;20739;-68
2023/03/23 11:26:04;;;;;;;2.30;1.00;;;;;;;16.92;62.45;99968.53;5054618;28;20218;-68
2023/03/23 11:28:34;;;;;;;3.10;1.07;;;;;;;16.86;60.88;99978.22;5054496;28;20234;-66
2023/03/23 11:31:04;;;;;;;2.37;0.60;;;;;;;16.71;61.15;99966.81;5070891;28;20320;-67
2023/03/23 11:33:36;;;;;;;1.37;0.67;;;;;;;16.72;61.49;99972.97;5052137;28;20815;-68
2023/03/23 11:36:03;;;;;;;1.40;0.70;;;;;;;16.77;61.08;99966.03;5056963;28;20215;-68
2023/03/23 11:38:30;;;;;;;1.83;0.63;;;;;;;16.77;61.23;99963.34;5054387;28;20258;-68
2023/03/23 11:41:00;;;;;;;1.57;0.70;;;;;;;16.90;61.06;99963.38;5051962;28;20208;-69
2023/03/23 11:43:27;;;;;;;2.40;0.90;;;;;;;16.78;62.02;99956.16;5049907;28;20211;-69